KZR954 UAAA-UACC
Flight info
| Callsign | KZR954 |
|---|---|
| Flight time | 1h 26m |
| Altitude | 36000 |
| Route | ETEDA W333 BANOS |
| Aircraft | A20N/M-SDE2E3FGHIRWXY/LB1 |
Departure
| Time | 2026-04-27 15:04 |
|---|---|
| Airport | Almaty International Airport (UAAA) |
Arrival
| Time | 2026-04-27 16:30 |
|---|---|
| Airport | Nursultan Nazarbayev International Airport (UACC) |
| Time | Latitude | Longitude | Altitude | Speed | Heading |
|---|---|---|---|---|---|
| 2026-04-27 14:52 | 43.34868 | 77.01655 | 2224 ft | 0 kts | 184° |
| 2026-04-27 14:58 | 43.34865 | 77.01655 | 2224 ft | 1 kts | 184° |
| 2026-04-27 14:59 | 43.34833 | 77.01645 | 2225 ft | 7 kts | 213° |
| 2026-04-27 14:59 | 43.34811 | 77.01565 | 2225 ft | 9 kts | 257° |
| 2026-04-27 14:59 | 43.34782 | 77.01492 | 2226 ft | 10 kts | 220° |
| 2026-04-27 14:59 | 43.34704 | 77.01449 | 2228 ft | 11 kts | 193° |
| 2026-04-27 15:00 | 43.34635 | 77.01460 | 2230 ft | 9 kts | 168° |
| 2026-04-27 15:00 | 43.34577 | 77.01473 | 2232 ft | 7 kts | 164° |
| 2026-04-27 15:00 | 43.34533 | 77.01498 | 2234 ft | 6 kts | 156° |
| 2026-04-27 15:00 | 43.34494 | 77.01521 | 2234 ft | 5 kts | 155° |
| 2026-04-27 15:01 | 43.34449 | 77.01550 | 2235 ft | 8 kts | 155° |
| 2026-04-27 15:01 | 43.34383 | 77.01593 | 2236 ft | 12 kts | 155° |
| 2026-04-27 15:01 | 43.34296 | 77.01648 | 2236 ft | 14 kts | 155° |
| 2026-04-27 15:01 | 43.34213 | 77.01701 | 2238 ft | 11 kts | 155° |
| 2026-04-27 15:02 | 43.34166 | 77.01775 | 2239 ft | 10 kts | 104° |
| 2026-04-27 15:02 | 43.34180 | 77.01862 | 2239 ft | 3 kts | 57° |
| 2026-04-27 15:02 | 43.34182 | 77.01865 | 2238 ft | 0 kts | 57° |
| 2026-04-27 15:03 | 43.34213 | 77.01930 | 2238 ft | 36 kts | 56° |
| 2026-04-27 15:03 | 43.34504 | 77.02509 | 2236 ft | 107 kts | 56° |
| 2026-04-27 15:03 | 43.35032 | 77.03582 | 2237 ft | 161 kts | 54° |
| 2026-04-27 15:03 | 43.35694 | 77.04887 | 2645 ft | 172 kts | 55° |
| 2026-04-27 15:04 | 43.36375 | 77.06278 | 3259 ft | 177 kts | 56° |
| 2026-04-27 15:04 | 43.37024 | 77.07671 | 4002 ft | 175 kts | 57° |
| 2026-04-27 15:04 | 43.37738 | 77.09073 | 4453 ft | 187 kts | 53° |
| 2026-04-27 15:04 | 43.38549 | 77.10570 | 4811 ft | 204 kts | 53° |
| 2026-04-27 15:05 | 43.39426 | 77.12199 | 5138 ft | 223 kts | 54° |
| 2026-04-27 15:05 | 43.40385 | 77.14011 | 5467 ft | 245 kts | 54° |
| 2026-04-27 15:05 | 43.41486 | 77.15926 | 5924 ft | 264 kts | 42° |
| 2026-04-27 15:05 | 43.43143 | 77.17091 | 6421 ft | 280 kts | 9° |
| 2026-04-27 15:06 | 43.45090 | 77.16845 | 7195 ft | 284 kts | 338° |
| 2026-04-27 15:06 | 43.46836 | 77.15629 | 8025 ft | 286 kts | 332° |
| 2026-04-27 15:06 | 43.48608 | 77.14349 | 8788 ft | 290 kts | 332° |
| 2026-04-27 15:06 | 43.50424 | 77.13060 | 9548 ft | 294 kts | 332° |
| 2026-04-27 15:07 | 43.52225 | 77.11790 | 10273 ft | 297 kts | 332° |
| 2026-04-27 15:07 | 43.54101 | 77.10470 | 10807 ft | 309 kts | 332° |
| 2026-04-27 15:07 | 43.56057 | 77.09096 | 11214 ft | 324 kts | 332° |
| 2026-04-27 15:07 | 43.58085 | 77.07670 | 11827 ft | 330 kts | 332° |
| 2026-04-27 15:08 | 43.60128 | 77.06234 | 12645 ft | 332 kts | 332° |
| 2026-04-27 15:08 | 43.62186 | 77.04785 | 13470 ft | 333 kts | 332° |
| 2026-04-27 15:08 | 43.64240 | 77.03341 | 14272 ft | 334 kts | 332° |
| 2026-04-27 15:08 | 43.66327 | 77.01872 | 14967 ft | 336 kts | 332° |
| 2026-04-27 15:09 | 43.68399 | 77.00410 | 15629 ft | 339 kts | 332° |
| 2026-04-27 15:09 | 43.70503 | 76.98926 | 16338 ft | 341 kts | 331° |
| 2026-04-27 15:09 | 43.72612 | 76.97437 | 17045 ft | 343 kts | 331° |
| 2026-04-27 15:09 | 43.74760 | 76.95921 | 17700 ft | 346 kts | 330° |
| 2026-04-27 15:10 | 43.76921 | 76.94395 | 18331 ft | 350 kts | 330° |
| 2026-04-27 15:10 | 43.79075 | 76.92871 | 18913 ft | 354 kts | 330° |
| 2026-04-27 15:10 | 43.81275 | 76.91310 | 19470 ft | 358 kts | 329° |
| 2026-04-27 15:10 | 43.83510 | 76.89723 | 20053 ft | 362 kts | 329° |
| 2026-04-27 15:11 | 43.85759 | 76.88126 | 20627 ft | 365 kts | 329° |
| 2026-04-27 15:11 | 43.88033 | 76.86510 | 21178 ft | 369 kts | 329° |
| 2026-04-27 15:11 | 43.90320 | 76.84884 | 21762 ft | 372 kts | 328° |
| 2026-04-27 15:11 | 43.92623 | 76.83246 | 22310 ft | 375 kts | 328° |
| 2026-04-27 15:12 | 43.94959 | 76.81580 | 22820 ft | 379 kts | 328° |
| 2026-04-27 15:12 | 43.97314 | 76.79900 | 23358 ft | 382 kts | 328° |
| 2026-04-27 15:12 | 43.99690 | 76.78207 | 23890 ft | 385 kts | 328° |
| 2026-04-27 15:12 | 44.02072 | 76.76503 | 24417 ft | 388 kts | 328° |
| 2026-04-27 15:13 | 44.04462 | 76.74792 | 24931 ft | 391 kts | 328° |
| 2026-04-27 15:13 | 44.06897 | 76.73050 | 25426 ft | 393 kts | 328° |
| 2026-04-27 15:13 | 44.09343 | 76.71297 | 25913 ft | 396 kts | 327° |
| 2026-04-27 15:13 | 44.11773 | 76.69553 | 26385 ft | 398 kts | 327° |
| 2026-04-27 15:14 | 44.14258 | 76.67770 | 26843 ft | 400 kts | 327° |
| 2026-04-27 15:14 | 44.16734 | 76.65990 | 27269 ft | 403 kts | 327° |
| 2026-04-27 15:14 | 44.19207 | 76.64213 | 27673 ft | 406 kts | 327° |
| 2026-04-27 15:14 | 44.21706 | 76.62412 | 28081 ft | 408 kts | 327° |
| 2026-04-27 15:15 | 44.24239 | 76.60586 | 28458 ft | 410 kts | 327° |
| 2026-04-27 15:15 | 44.26793 | 76.58743 | 28801 ft | 413 kts | 327° |
| 2026-04-27 15:15 | 44.29340 | 76.56904 | 29148 ft | 416 kts | 327° |
| 2026-04-27 15:15 | 44.31891 | 76.55061 | 29485 ft | 418 kts | 327° |
| 2026-04-27 15:16 | 44.34543 | 76.53254 | 29810 ft | 422 kts | 330° |
| 2026-04-27 15:16 | 44.37245 | 76.51626 | 30122 ft | 425 kts | 332° |
| 2026-04-27 15:16 | 44.39943 | 76.50051 | 30417 ft | 427 kts | 332° |
| 2026-04-27 15:16 | 44.42709 | 76.48447 | 30708 ft | 429 kts | 332° |
| 2026-04-27 15:17 | 44.45457 | 76.46851 | 31034 ft | 429 kts | 332° |
| 2026-04-27 15:17 | 44.48224 | 76.45240 | 31447 ft | 427 kts | 331° |
| 2026-04-27 15:17 | 44.50928 | 76.43663 | 31842 ft | 425 kts | 331° |
| 2026-04-27 15:17 | 44.53652 | 76.42070 | 32215 ft | 424 kts | 331° |
| 2026-04-27 15:18 | 44.56393 | 76.40463 | 32580 ft | 422 kts | 331° |
| 2026-04-27 15:18 | 44.59105 | 76.38870 | 32934 ft | 421 kts | 331° |
| 2026-04-27 15:18 | 44.61798 | 76.37287 | 33277 ft | 420 kts | 330° |
| 2026-04-27 15:18 | 44.64456 | 76.35724 | 33588 ft | 419 kts | 330° |
| 2026-04-27 15:19 | 44.67153 | 76.34135 | 33913 ft | 418 kts | 329° |
| 2026-04-27 15:19 | 44.69810 | 76.32568 | 34206 ft | 417 kts | 329° |
| 2026-04-27 15:19 | 44.72509 | 76.30971 | 34478 ft | 417 kts | 329° |
| 2026-04-27 15:19 | 44.75161 | 76.29402 | 34718 ft | 417 kts | 329° |
| 2026-04-27 15:20 | 44.77847 | 76.27811 | 35104 ft | 417 kts | 329° |
| 2026-04-27 15:20 | 44.80488 | 76.26244 | 35362 ft | 418 kts | 329° |
| 2026-04-27 15:20 | 44.85869 | 76.23052 | 35546 ft | 419 kts | 330° |
| 2026-04-27 15:21 | 44.88534 | 76.21468 | 35737 ft | 419 kts | 330° |
| 2026-04-27 15:21 | 44.91246 | 76.19855 | 35958 ft | 419 kts | 330° |
| 2026-04-27 15:21 | 44.93910 | 76.18269 | 36104 ft | 420 kts | 330° |
| 2026-04-27 15:21 | 44.96609 | 76.16662 | 36107 ft | 420 kts | 330° |
| 2026-04-27 15:22 | 45.01991 | 76.13454 | 36111 ft | 419 kts | 329° |
| 2026-04-27 15:22 | 45.07352 | 76.10246 | 36111 ft | 419 kts | 330° |
| 2026-04-27 15:23 | 45.12739 | 76.07020 | 36108 ft | 419 kts | 330° |
| 2026-04-27 15:23 | 45.18073 | 76.03816 | 36112 ft | 419 kts | 329° |
| 2026-04-27 15:24 | 45.23437 | 76.00590 | 36115 ft | 419 kts | 329° |
| 2026-04-27 15:24 | 45.28807 | 75.97351 | 36112 ft | 419 kts | 329° |
| 2026-04-27 15:25 | 45.34134 | 75.94132 | 36112 ft | 419 kts | 329° |
| 2026-04-27 15:25 | 45.39507 | 75.90878 | 36113 ft | 421 kts | 329° |
| 2026-04-27 15:26 | 45.44957 | 75.87564 | 36110 ft | 428 kts | 330° |
| 2026-04-27 15:26 | 45.50431 | 75.84239 | 36111 ft | 429 kts | 329° |
| 2026-04-27 15:27 | 45.55905 | 75.80906 | 36109 ft | 429 kts | 329° |
| 2026-04-27 15:27 | 45.61373 | 75.77564 | 36112 ft | 429 kts | 329° |
| 2026-04-27 15:28 | 45.66859 | 75.74204 | 36110 ft | 429 kts | 329° |
| 2026-04-27 15:28 | 45.72364 | 75.70826 | 36113 ft | 430 kts | 329° |
| 2026-04-27 15:29 | 45.77851 | 75.67466 | 36113 ft | 430 kts | 329° |
| 2026-04-27 15:29 | 45.83312 | 75.64110 | 36114 ft | 430 kts | 329° |
| 2026-04-27 15:30 | 45.88830 | 75.60710 | 36111 ft | 429 kts | 329° |
| 2026-04-27 15:30 | 45.94291 | 75.57333 | 36109 ft | 429 kts | 329° |
| 2026-04-27 15:31 | 45.99768 | 75.53940 | 36104 ft | 430 kts | 329° |
| 2026-04-27 15:31 | 46.05283 | 75.50513 | 36117 ft | 430 kts | 329° |
| 2026-04-27 15:32 | 46.10754 | 75.47108 | 36114 ft | 430 kts | 329° |
| 2026-04-27 15:32 | 46.16272 | 75.43663 | 36121 ft | 431 kts | 329° |
| 2026-04-27 15:33 | 46.21797 | 75.40209 | 36126 ft | 431 kts | 329° |
| 2026-04-27 15:33 | 46.27291 | 75.36800 | 36115 ft | 431 kts | 330° |
| 2026-04-27 15:34 | 46.32805 | 75.33378 | 36116 ft | 431 kts | 329° |
| 2026-04-27 15:34 | 46.38336 | 75.29934 | 36130 ft | 431 kts | 329° |
| 2026-04-27 15:35 | 46.43837 | 75.26497 | 36127 ft | 431 kts | 329° |
| 2026-04-27 15:35 | 46.49347 | 75.23048 | 36133 ft | 431 kts | 329° |
| 2026-04-27 15:36 | 46.54830 | 75.19604 | 36135 ft | 431 kts | 329° |
| 2026-04-27 15:36 | 46.60343 | 75.16136 | 36143 ft | 431 kts | 330° |
| 2026-04-27 15:37 | 46.65873 | 75.12650 | 36139 ft | 432 kts | 330° |
| 2026-04-27 15:37 | 46.71350 | 75.09187 | 36137 ft | 432 kts | 330° |
| 2026-04-27 15:38 | 46.76859 | 75.05696 | 36145 ft | 431 kts | 330° |
| 2026-04-27 15:38 | 46.82380 | 75.02187 | 36134 ft | 431 kts | 330° |
| 2026-04-27 15:39 | 46.87867 | 74.98709 | 36139 ft | 433 kts | 332° |
| 2026-04-27 15:39 | 46.93505 | 74.95543 | 36149 ft | 434 kts | 333° |
| 2026-04-27 15:40 | 46.99138 | 74.92457 | 36156 ft | 435 kts | 333° |
| 2026-04-27 15:40 | 47.04812 | 74.89333 | 36157 ft | 436 kts | 333° |
| 2026-04-27 15:41 | 47.10478 | 74.86201 | 36162 ft | 435 kts | 333° |
| 2026-04-27 15:41 | 47.16137 | 74.83065 | 36169 ft | 435 kts | 333° |
| 2026-04-27 15:42 | 47.21814 | 74.79908 | 36173 ft | 434 kts | 334° |
| 2026-04-27 15:42 | 47.27451 | 74.76765 | 36181 ft | 435 kts | 334° |
| 2026-04-27 15:43 | 47.33085 | 74.73621 | 36182 ft | 435 kts | 334° |
| 2026-04-27 15:43 | 47.38780 | 74.70433 | 36180 ft | 435 kts | 334° |
| 2026-04-27 15:44 | 47.44474 | 74.67235 | 36196 ft | 435 kts | 334° |
| 2026-04-27 15:44 | 47.50130 | 74.64053 | 36190 ft | 435 kts | 334° |
| 2026-04-27 15:45 | 47.55772 | 74.60877 | 36195 ft | 435 kts | 334° |
| 2026-04-27 15:45 | 47.61462 | 74.57700 | 36198 ft | 435 kts | 334° |
| 2026-04-27 15:46 | 47.67135 | 74.54520 | 36184 ft | 435 kts | 335° |
| 2026-04-27 15:46 | 47.72815 | 74.51326 | 36184 ft | 436 kts | 335° |
| 2026-04-27 15:47 | 47.78484 | 74.48129 | 36201 ft | 435 kts | 335° |
| 2026-04-27 15:47 | 47.84156 | 74.44922 | 36204 ft | 435 kts | 335° |
| 2026-04-27 15:48 | 47.89815 | 74.41713 | 36199 ft | 435 kts | 335° |
| 2026-04-27 15:49 | 47.98346 | 74.36863 | 36197 ft | 436 kts | 335° |
| 2026-04-27 15:49 | 48.03990 | 74.33644 | 36211 ft | 436 kts | 335° |
| 2026-04-27 15:50 | 48.09651 | 74.30405 | 36213 ft | 435 kts | 335° |
| 2026-04-27 15:50 | 48.15312 | 74.27174 | 36219 ft | 435 kts | 335° |
| 2026-04-27 15:51 | 48.21008 | 74.23962 | 36219 ft | 434 kts | 335° |
| 2026-04-27 15:51 | 48.26676 | 74.20756 | 36219 ft | 434 kts | 335° |
| 2026-04-27 15:52 | 48.32320 | 74.17550 | 36222 ft | 434 kts | 335° |
| 2026-04-27 15:52 | 48.37954 | 74.14340 | 36233 ft | 435 kts | 335° |
| 2026-04-27 15:53 | 48.43617 | 74.11107 | 36232 ft | 434 kts | 335° |
| 2026-04-27 15:53 | 48.49257 | 74.07878 | 36237 ft | 434 kts | 335° |
| 2026-04-27 15:54 | 48.54929 | 74.04623 | 36238 ft | 433 kts | 335° |
| 2026-04-27 15:54 | 48.60569 | 74.01379 | 36238 ft | 433 kts | 335° |
| 2026-04-27 15:55 | 48.66193 | 73.98133 | 36244 ft | 433 kts | 335° |
| 2026-04-27 15:55 | 48.71814 | 73.94885 | 36408 ft | 432 kts | 336° |
| 2026-04-27 15:56 | 48.77419 | 73.91634 | 36293 ft | 430 kts | 336° |
| 2026-04-27 15:56 | 48.83038 | 73.88370 | 36266 ft | 431 kts | 336° |
| 2026-04-27 15:57 | 48.88641 | 73.85107 | 36262 ft | 431 kts | 336° |
| 2026-04-27 15:57 | 48.94229 | 73.81841 | 36263 ft | 431 kts | 336° |
| 2026-04-27 15:58 | 48.99813 | 73.78575 | 36267 ft | 430 kts | 336° |
| 2026-04-27 15:58 | 49.05402 | 73.75291 | 36268 ft | 431 kts | 336° |
| 2026-04-27 15:59 | 49.11023 | 73.71972 | 36273 ft | 435 kts | 336° |
| 2026-04-27 15:59 | 49.16682 | 73.68626 | 36270 ft | 435 kts | 336° |
| 2026-04-27 16:00 | 49.22313 | 73.65284 | 36266 ft | 435 kts | 336° |
| 2026-04-27 16:00 | 49.27975 | 73.61918 | 36272 ft | 435 kts | 336° |
| 2026-04-27 16:01 | 49.33614 | 73.58556 | 36271 ft | 435 kts | 336° |
| 2026-04-27 16:01 | 49.39233 | 73.55198 | 36134 ft | 436 kts | 336° |
| 2026-04-27 16:02 | 49.44872 | 73.51820 | 36225 ft | 426 kts | 336° |
| 2026-04-27 16:02 | 49.50330 | 73.48541 | 36257 ft | 421 kts | 336° |
| 2026-04-27 16:03 | 49.55809 | 73.45233 | 36259 ft | 421 kts | 336° |
| 2026-04-27 16:03 | 49.61280 | 73.41910 | 36256 ft | 420 kts | 335° |
| 2026-04-27 16:04 | 49.66494 | 73.37968 | 36258 ft | 418 kts | 328° |
| 2026-04-27 16:04 | 49.71334 | 73.33094 | 36262 ft | 416 kts | 321° |
| 2026-04-27 16:05 | 49.75768 | 73.27355 | 35786 ft | 416 kts | 315° |
| 2026-04-27 16:05 | 49.77891 | 73.24308 | 35350 ft | 417 kts | 315° |
| 2026-04-27 16:05 | 49.80014 | 73.21233 | 34838 ft | 420 kts | 315° |
| 2026-04-27 16:05 | 49.82130 | 73.18164 | 34188 ft | 417 kts | 315° |
| 2026-04-27 16:06 | 49.84228 | 73.15121 | 33415 ft | 412 kts | 316° |
| 2026-04-27 16:06 | 49.86335 | 73.12065 | 32739 ft | 410 kts | 316° |
| 2026-04-27 16:06 | 49.88385 | 73.09090 | 32094 ft | 407 kts | 316° |
| 2026-04-27 16:06 | 49.90467 | 73.06068 | 31422 ft | 404 kts | 316° |
| 2026-04-27 16:07 | 49.92483 | 73.03137 | 30781 ft | 403 kts | 317° |
| 2026-04-27 16:07 | 49.94526 | 73.00167 | 30278 ft | 398 kts | 317° |
| 2026-04-27 16:07 | 49.96581 | 72.97331 | 29805 ft | 394 kts | 324° |
| 2026-04-27 16:07 | 49.98888 | 72.95136 | 29434 ft | 398 kts | 330° |
| 2026-04-27 16:08 | 50.01299 | 72.93015 | 29049 ft | 397 kts | 330° |
| 2026-04-27 16:08 | 50.03691 | 72.90908 | 28675 ft | 395 kts | 330° |
| 2026-04-27 16:08 | 50.06081 | 72.88781 | 28248 ft | 392 kts | 330° |
| 2026-04-27 16:08 | 50.08440 | 72.86662 | 27827 ft | 389 kts | 330° |
| 2026-04-27 16:09 | 50.10751 | 72.84573 | 27407 ft | 386 kts | 329° |
| 2026-04-27 16:09 | 50.15357 | 72.80386 | 26566 ft | 380 kts | 329° |
| 2026-04-27 16:09 | 50.17627 | 72.78312 | 26145 ft | 377 kts | 329° |
| 2026-04-27 16:10 | 50.22115 | 72.74202 | 25294 ft | 371 kts | 329° |
| 2026-04-27 16:10 | 50.26515 | 72.70162 | 24471 ft | 365 kts | 330° |
| 2026-04-27 16:11 | 50.28698 | 72.68154 | 24057 ft | 362 kts | 330° |
| 2026-04-27 16:11 | 50.33004 | 72.64188 | 23209 ft | 357 kts | 330° |
| 2026-04-27 16:12 | 50.37233 | 72.60287 | 22336 ft | 352 kts | 329° |
| 2026-04-27 16:12 | 50.39324 | 72.58355 | 21910 ft | 350 kts | 329° |
| 2026-04-27 16:12 | 50.43507 | 72.54482 | 21051 ft | 345 kts | 329° |
| 2026-04-27 16:13 | 50.45560 | 72.52579 | 20632 ft | 343 kts | 329° |
| 2026-04-27 16:13 | 50.49632 | 72.48797 | 19791 ft | 339 kts | 329° |
| 2026-04-27 16:13 | 50.51640 | 72.46928 | 19370 ft | 337 kts | 329° |
| 2026-04-27 16:14 | 50.55656 | 72.43186 | 18513 ft | 333 kts | 329° |
| 2026-04-27 16:14 | 50.59620 | 72.39484 | 17671 ft | 330 kts | 329° |
| 2026-04-27 16:15 | 50.63562 | 72.35796 | 16811 ft | 327 kts | 329° |
| 2026-04-27 16:15 | 50.67439 | 72.32161 | 15942 ft | 325 kts | 328° |
| 2026-04-27 16:16 | 50.71310 | 72.28526 | 15069 ft | 323 kts | 328° |
| 2026-04-27 16:16 | 50.75161 | 72.24901 | 14199 ft | 321 kts | 328° |
| 2026-04-27 16:17 | 50.78983 | 72.21298 | 13342 ft | 319 kts | 328° |
| 2026-04-27 16:17 | 50.82774 | 72.17718 | 12497 ft | 316 kts | 328° |
| 2026-04-27 16:18 | 50.86510 | 72.14184 | 11674 ft | 313 kts | 329° |
| 2026-04-27 16:18 | 50.90229 | 72.10657 | 10849 ft | 310 kts | 329° |
| 2026-04-27 16:19 | 50.92097 | 72.08883 | 10523 ft | 305 kts | 329° |
| 2026-04-27 16:19 | 50.93883 | 72.07185 | 10416 ft | 292 kts | 329° |
| 2026-04-27 16:20 | 50.98880 | 72.02426 | 9627 ft | 277 kts | 329° |
| 2026-04-27 16:20 | 51.00520 | 72.00864 | 9276 ft | 275 kts | 329° |
| 2026-04-27 16:20 | 51.03787 | 71.97746 | 8609 ft | 271 kts | 328° |
| 2026-04-27 16:21 | 51.05391 | 71.96212 | 8285 ft | 269 kts | 328° |
| 2026-04-27 16:21 | 51.10143 | 71.91657 | 7334 ft | 263 kts | 328° |
| 2026-04-27 16:22 | 51.11711 | 71.90152 | 7019 ft | 261 kts | 328° |
| 2026-04-27 16:22 | 51.14691 | 71.86938 | 6392 ft | 258 kts | 319° |
| 2026-04-27 16:22 | 51.15997 | 71.84977 | 6077 ft | 257 kts | 315° |
| 2026-04-27 16:23 | 51.17241 | 71.82983 | 5770 ft | 255 kts | 315° |
| 2026-04-27 16:23 | 51.19664 | 71.79036 | 5494 ft | 236 kts | 310° |
| 2026-04-27 16:23 | 51.20304 | 71.76729 | 5477 ft | 229 kts | 272° |
| 2026-04-27 16:24 | 51.19889 | 71.74341 | 5361 ft | 226 kts | 236° |
| 2026-04-27 16:24 | 51.17795 | 71.70794 | 5018 ft | 214 kts | 225° |
| 2026-04-27 16:25 | 51.15674 | 71.67571 | 4613 ft | 204 kts | 225° |
| 2026-04-27 16:25 | 51.13761 | 71.64611 | 4010 ft | 177 kts | 225° |
| 2026-04-27 16:26 | 51.12125 | 71.62058 | 3542 ft | 153 kts | 226° |
| 2026-04-27 16:26 | 51.10652 | 71.59753 | 3148 ft | 147 kts | 226° |
| 2026-04-27 16:27 | 51.09203 | 71.57489 | 2787 ft | 145 kts | 226° |
| 2026-04-27 16:27 | 51.07061 | 71.54143 | 2212 ft | 142 kts | 226° |
| 2026-04-27 16:28 | 51.05660 | 71.51953 | 1824 ft | 141 kts | 226° |
| 2026-04-27 16:28 | 51.04275 | 71.49764 | 1447 ft | 140 kts | 226° |
| 2026-04-27 16:29 | 51.02359 | 71.46774 | 1175 ft | 85 kts | 227° |
| 2026-04-27 16:30 | 51.01786 | 71.45885 | 1175 ft | 43 kts | 225° |
| 2026-04-27 16:30 | 51.01760 | 71.45550 | 1175 ft | 14 kts | 315° |
| 2026-04-27 16:31 | 51.01909 | 71.45615 | 1175 ft | 12 kts | 45° |
| 2026-04-27 16:31 | 51.02041 | 71.45821 | 1175 ft | 15 kts | 45° |
| 2026-04-27 16:32 | 51.02202 | 71.46072 | 1175 ft | 16 kts | 44° |
| 2026-04-27 16:32 | 51.02281 | 71.46193 | 1175 ft | 8 kts | 45° |
| 2026-04-27 16:33 | 51.02383 | 71.46191 | 1175 ft | 7 kts | 319° |
| 2026-04-27 16:33 | 51.02428 | 71.46121 | 1175 ft | 10 kts | 315° |
| 2026-04-27 16:33 | 51.02481 | 71.46034 | 1175 ft | 11 kts | 312° |
| 2026-04-27 16:33 | 51.02535 | 71.45946 | 1175 ft | 8 kts | 320° |
| 2026-04-27 16:34 | 51.02584 | 71.45950 | 1175 ft | 6 kts | 40° |
| 2026-04-27 16:34 | 51.02615 | 71.45983 | 1175 ft | 3 kts | 28° |
| 2026-04-27 16:34 | 51.02631 | 71.45995 | 1175 ft | 0 kts | 28° |